Blairsville, Georgia
Current Conditions -  °F | °C
As of 8:35 PM on Saturday 25 Oct 2014 (Local Time) from KRHP Reporting Station
Overcast Overcast  
Wind Chill: 56°   Ceiling: 4300
Heat Index: 56°   Visibility: 10mi
Dew Point: 52°   Wind: 0mph
Humidity: 85%   Direction: NA
Pressure: 30.05"   Gusts: NA
Location:  34.88°N, 83.95°W
Report Text: KRHP 260035Z AUTO 00000KT 10SM OVC043 14/11 A3005 RMK AO2 T01350110
Loading
Personal Weather Stations






























Interactive Weather Map
Tropical Storm Tracking
New forecast layout! Learn more

10-Day Weather Forecast

Advertisements
Track Severe Weather on mobile